createdAt,value
2024-04-13T00:00:56.339Z,96.60
2024-04-13T00:03:44.533Z,73.60
2024-04-13T00:06:12.768Z,42.00
2024-04-13T00:08:41.538Z,29.90
2024-04-13T00:11:10.080Z,66.50
2024-04-13T00:13:38.589Z,27.10
2024-04-13T00:16:06.552Z,35.60
2024-04-13T00:18:33.814Z,30.20
2024-04-13T00:21:02.019Z,64.10
2024-04-13T00:23:31.653Z,68.60
2024-04-13T00:25:59.337Z,40.20
2024-04-13T00:28:26.843Z,33.30
2024-04-13T00:30:55.412Z,37.90
2024-04-13T00:33:22.965Z,16.00
2024-04-13T00:35:52.171Z,24.20
2024-04-13T00:38:19.453Z,39.10
2024-04-13T00:40:47.388Z,25.60
2024-04-13T00:43:14.633Z,18.50
2024-04-13T00:45:46.463Z,3.30
2024-04-13T00:48:18.985Z,24.90
2024-04-13T00:50:49.221Z,15.20
2024-04-13T00:53:18.527Z,1.00
2024-04-13T00:55:46.275Z,1.00
2024-04-13T00:58:13.740Z,1.00
2024-04-13T01:00:44.247Z,1.00
2024-04-13T01:03:11.669Z,1.00
2024-04-13T01:05:40.087Z,1.00
2024-04-13T01:08:07.323Z,1.00
2024-04-13T01:10:35.049Z,1.00
2024-04-13T01:13:05.828Z,1.00
2024-04-13T01:15:33.452Z,1.00
2024-04-13T01:18:00.846Z,1.00
2024-04-13T01:20:28.644Z,1.00
2024-04-13T01:22:58.445Z,1.00
2024-04-13T01:25:26.405Z,1.00
2024-04-13T01:27:53.632Z,1.00
2024-04-13T01:30:23.944Z,1.00
2024-04-13T01:32:52.427Z,1.00
2024-04-13T01:35:20.914Z,1.00
2024-04-13T01:37:48.301Z,1.00
2024-04-13T01:40:16.126Z,1.00
2024-04-13T01:42:43.602Z,1.00
2024-04-13T01:45:11.593Z,1.00
2024-04-13T01:47:39.534Z,1.00
2024-04-13T01:50:08.167Z,1.00
2024-04-13T01:52:35.661Z,1.00
2024-04-13T01:55:03.432Z,1.00
2024-04-13T01:57:30.794Z,47.40
2024-04-13T01:59:58.536Z,34.50
2024-04-13T02:02:25.903Z,1.00
2024-04-13T02:04:54.010Z,1.00
2024-04-13T02:07:21.440Z,10.10
2024-04-13T02:09:49.532Z,7.10
2024-04-13T02:12:16.931Z,18.60
2024-04-13T02:14:44.717Z,1.00
2024-04-13T02:17:12.031Z,11.90
2024-04-13T02:19:40.692Z,1.00
2024-04-13T02:22:07.992Z,99.90
2024-04-13T02:24:35.866Z,95.70
2024-04-13T02:29:31.596Z,93.90
2024-04-13T02:31:58.864Z,8.10
2024-04-13T02:34:26.935Z,1.00
2024-04-13T02:36:54.374Z,78.80
2024-04-13T02:39:22.988Z,66.10
2024-04-13T02:41:50.388Z,1.00
2024-04-13T02:44:18.201Z,1.00
2024-04-13T02:46:45.703Z,1.00
2024-04-13T02:49:13.407Z,1.00
2024-04-13T02:51:40.862Z,1.00
2024-04-13T02:54:09.412Z,1.00
2024-04-13T02:56:37.286Z,1.00
2024-04-13T02:59:04.990Z,1.00
2024-04-13T03:01:32.222Z,1.00
2024-04-13T03:04:00.059Z,1.00
2024-04-13T03:06:27.623Z,1.00
2024-04-13T03:08:55.364Z,1.00
2024-04-13T03:11:23.207Z,1.00
2024-04-13T03:13:51.031Z,1.00
2024-04-13T03:16:18.388Z,1.00
2024-04-13T03:18:47.794Z,1.00
2024-04-13T03:21:15.174Z,1.00
2024-04-13T03:23:43.990Z,1.00
2024-04-13T03:26:11.391Z,1.00
2024-04-13T03:28:39.096Z,1.00
2024-04-13T03:31:06.831Z,1.00
2024-04-13T03:33:34.852Z,1.00
2024-04-13T03:36:05.732Z,1.00
2024-04-13T03:38:34.522Z,1.00
2024-04-13T03:41:03.015Z,1.00
2024-04-13T03:43:30.711Z,1.00
2024-04-13T03:45:58.718Z,1.00
2024-04-13T03:48:26.735Z,1.00
2024-04-13T03:50:54.148Z,1.00
2024-04-13T03:53:22.242Z,1.00
2024-04-13T03:55:49.486Z,1.00
2024-04-13T03:58:17.219Z,1.00
2024-04-13T04:00:44.776Z,1.00
2024-04-13T04:03:13.770Z,1.00
2024-04-13T04:05:41.209Z,1.00
2024-04-13T04:08:09.537Z,1.00
2024-04-13T04:10:36.712Z,1.00
2024-04-13T04:13:06.896Z,1.00
2024-04-13T04:15:34.766Z,10.00
2024-04-13T04:18:04.275Z,23.40
2024-04-13T04:20:35.511Z,23.50
2024-04-13T04:23:03.489Z,27.80
2024-04-13T04:25:30.804Z,60.70
2024-04-13T04:27:58.837Z,64.40
2024-04-13T04:30:26.315Z,80.50
2024-04-13T04:32:54.684Z,52.00
2024-04-13T04:35:22.129Z,46.80
2024-04-13T04:37:49.894Z,89.00
2024-04-13T04:40:17.344Z,99.90
2024-04-13T04:42:45.168Z,99.90
2024-04-13T04:45:12.469Z,99.90
2024-04-13T04:47:40.358Z,99.90
2024-04-13T04:50:07.966Z,99.90
2024-04-13T04:52:35.624Z,99.90
2024-04-13T04:55:03.322Z,96.80
2024-04-13T04:57:31.424Z,97.00
2024-04-13T04:59:58.692Z,90.80
2024-04-13T05:02:26.742Z,99.90
2024-04-13T05:04:53.998Z,93.90
2024-04-13T05:07:21.642Z,99.90
2024-04-13T05:09:48.991Z,99.90
2024-04-13T05:12:16.673Z,99.90
2024-04-13T05:14:44.087Z,99.90
2024-04-13T05:17:14.626Z,99.90
2024-04-13T05:19:42.331Z,99.90
2024-04-13T05:22:10.526Z,99.90
2024-04-13T05:24:39.346Z,99.90
2024-04-13T05:27:08.520Z,97.80
2024-04-13T05:29:37.104Z,82.40
2024-04-13T05:32:08.686Z,84.70
2024-04-13T05:34:35.964Z,50.40
2024-04-13T05:37:04.379Z,47.70
2024-04-13T05:39:32.026Z,49.00
2024-04-13T05:41:59.761Z,43.70
2024-04-13T05:44:26.987Z,71.30
2024-04-13T05:46:54.700Z,99.90
2024-04-13T05:49:21.997Z,99.90
2024-04-13T05:51:49.843Z,99.90
2024-04-13T05:54:17.446Z,76.70
2024-04-13T05:56:45.281Z,8.60
2024-04-13T05:59:12.835Z,9.50
2024-04-13T06:01:43.263Z,1.00
2024-04-13T06:04:10.673Z,1.00
2024-04-13T06:06:38.758Z,99.90
2024-04-13T06:09:09.183Z,99.90
2024-04-13T06:11:37.096Z,1.00
2024-04-13T06:14:04.550Z,1.00
2024-04-13T06:16:32.484Z,1.00
2024-04-13T06:19:02.068Z,5.40
2024-04-13T06:21:31.403Z,1.00
2024-04-13T06:23:59.140Z,1.00
2024-04-13T06:26:27.095Z,1.00
2024-04-13T06:28:54.472Z,1.00
2024-04-13T06:31:22.156Z,1.00
2024-04-13T06:33:49.756Z,1.00
2024-04-13T06:36:18.064Z,1.00
2024-04-13T06:38:45.670Z,1.00
2024-04-13T06:41:13.584Z,1.00
2024-04-13T06:43:40.826Z,22.70
2024-04-13T06:46:08.574Z,6.80
2024-04-13T06:48:37.224Z,46.20
2024-04-13T06:51:05.121Z,74.20
2024-04-13T06:53:32.461Z,88.70
2024-04-13T06:56:00.193Z,49.10
2024-04-13T06:58:27.482Z,39.90
2024-04-13T07:00:59.030Z,50.00
2024-04-13T07:03:26.994Z,81.20
2024-04-13T07:06:02.223Z,90.60
2024-04-13T07:08:30.662Z,99.90
2024-04-13T07:10:59.309Z,99.90
2024-04-13T07:13:26.842Z,97.20
2024-04-13T07:15:54.228Z,68.90
2024-04-13T07:18:22.077Z,93.20
2024-04-13T07:20:49.418Z,99.90
2024-04-13T07:23:17.604Z,99.90
2024-04-13T07:25:45.800Z,99.90
2024-04-13T07:28:13.470Z,99.90
2024-04-13T07:30:41.044Z,99.90
2024-04-13T07:33:08.964Z,99.90
2024-04-13T07:35:36.252Z,99.90
2024-04-13T07:38:04.162Z,99.90
2024-04-13T07:40:31.409Z,99.90
2024-04-13T07:42:59.233Z,99.90
2024-04-13T07:45:26.571Z,99.90
2024-04-13T07:47:54.450Z,99.90
2024-04-13T07:50:22.382Z,99.90
2024-04-13T07:52:50.248Z,99.90
2024-04-13T07:55:18.119Z,99.90
2024-04-13T07:57:46.006Z,99.90
2024-04-13T08:00:14.196Z,99.90
2024-04-13T08:02:42.137Z,99.90
2024-04-13T08:05:10.078Z,99.90
2024-04-13T08:07:37.960Z,99.90
2024-04-13T08:10:05.426Z,99.90
2024-04-13T08:12:33.255Z,99.90
2024-04-13T08:15:00.841Z,99.90
2024-04-13T08:17:29.928Z,99.90
2024-04-13T08:19:57.216Z,99.90
2024-04-13T08:22:24.973Z,99.90
2024-04-13T08:24:52.844Z,99.90
2024-04-13T08:27:21.313Z,99.90
2024-04-13T08:29:52.465Z,99.90
2024-04-13T08:32:20.317Z,99.90
2024-04-13T08:34:47.610Z,99.90
2024-04-13T08:37:15.355Z,99.90
2024-04-13T08:39:43.151Z,99.90
2024-04-13T08:42:12.923Z,99.90
2024-04-13T08:44:40.482Z,99.90
2024-04-13T08:47:08.947Z,99.90
2024-04-13T08:49:38.139Z,99.90
2024-04-13T08:52:08.541Z,99.90
2024-04-13T08:54:36.520Z,99.90
2024-04-13T08:57:07.072Z,99.90
2024-04-13T08:59:36.720Z,99.90
2024-04-13T09:02:08.662Z,99.90
2024-04-13T09:04:38.118Z,99.90
2024-04-13T09:07:05.558Z,99.90
2024-04-13T09:09:35.853Z,99.90
2024-04-13T09:12:03.359Z,99.90
2024-04-13T09:14:30.987Z,99.90
2024-04-13T09:17:00.476Z,99.90
2024-04-13T09:19:28.332Z,99.90
2024-04-13T09:21:57.059Z,99.90
2024-04-13T09:24:25.818Z,99.90
2024-04-13T09:26:53.250Z,99.90
2024-04-13T09:29:28.823Z,99.90
2024-04-13T09:31:56.421Z,99.90
2024-04-13T09:34:25.075Z,99.90
2024-04-13T09:36:55.624Z,99.90
2024-04-13T09:39:24.675Z,99.90
2024-04-13T09:41:52.445Z,99.90
2024-04-13T09:44:29.970Z,99.90
2024-04-13T09:46:57.861Z,99.90
2024-04-13T09:49:25.789Z,99.90
2024-04-13T09:51:53.271Z,99.90
2024-04-13T09:54:28.114Z,99.90
2024-04-13T09:56:55.574Z,99.90
2024-04-13T09:59:25.071Z,99.90
2024-04-13T10:01:52.575Z,99.90
2024-04-13T10:04:20.691Z,99.90
2024-04-13T10:06:49.786Z,99.90
2024-04-13T10:09:20.851Z,99.90
2024-04-13T10:11:52.353Z,99.90
2024-04-13T10:14:24.690Z,99.90
2024-04-13T10:16:54.106Z,99.90
2024-04-13T10:19:22.943Z,99.90
2024-04-13T10:21:57.460Z,99.90
2024-04-13T10:24:25.557Z,99.90
2024-04-13T10:26:52.929Z,99.90
2024-04-13T10:29:27.341Z,99.90
2024-04-13T10:31:55.222Z,99.90
2024-04-13T10:34:26.846Z,99.90
2024-04-13T10:37:00.710Z,99.90
2024-04-13T10:39:28.494Z,99.90
2024-04-13T10:41:55.752Z,99.90
2024-04-13T10:44:27.062Z,99.90
2024-04-13T10:46:54.480Z,99.90
2024-04-13T10:49:22.710Z,99.90
2024-04-13T10:51:50.214Z,99.90
2024-04-13T10:54:17.990Z,99.90
2024-04-13T10:56:46.061Z,99.90
2024-04-13T10:59:13.913Z,99.90
2024-04-13T11:01:44.647Z,99.90
2024-04-13T11:04:14.635Z,99.90
2024-04-13T11:06:43.412Z,99.90
2024-04-13T11:09:11.652Z,99.90
2024-04-13T11:11:39.509Z,99.90
2024-04-13T11:14:07.929Z,99.90
2024-04-13T11:16:35.734Z,99.90
2024-04-13T11:19:03.813Z,99.90
2024-04-13T11:21:32.175Z,99.90
2024-04-13T11:24:00.160Z,99.90
2024-04-13T11:26:30.692Z,99.90
2024-04-13T11:28:58.169Z,99.90
2024-04-13T11:31:26.228Z,99.90
2024-04-13T11:33:53.606Z,99.90
2024-04-13T11:36:21.555Z,99.90
2024-04-13T11:38:48.919Z,99.90
2024-04-13T11:41:18.313Z,99.90
2024-04-13T11:43:57.348Z,99.90
2024-04-13T11:46:25.719Z,99.90
2024-04-13T11:48:53.151Z,99.90
2024-04-13T11:51:21.351Z,99.90
2024-04-13T11:53:50.851Z,99.90
2024-04-13T11:56:20.092Z,99.90
2024-04-13T11:58:48.768Z,99.90
2024-04-13T12:01:17.098Z,99.90
2024-04-13T12:03:44.442Z,99.90
2024-04-13T12:06:12.461Z,99.90
2024-04-13T12:08:39.915Z,99.90
2024-04-13T12:11:07.955Z,99.90
2024-04-13T12:13:35.337Z,99.90
2024-04-13T12:16:03.652Z,99.90
2024-04-13T12:18:31.193Z,99.90
2024-04-13T12:20:58.934Z,99.90
2024-04-13T12:23:28.777Z,99.90
2024-04-13T12:25:56.598Z,99.90
2024-04-13T12:28:23.876Z,99.90
2024-04-13T12:30:51.658Z,99.90
2024-04-13T12:33:19.024Z,99.90
2024-04-13T12:35:47.173Z,99.90
2024-04-13T12:38:14.487Z,99.90
2024-04-13T12:40:42.512Z,99.90
2024-04-13T12:43:19.975Z,99.90
2024-04-13T12:45:47.823Z,99.90
2024-04-13T12:48:15.368Z,99.90
2024-04-13T12:50:43.179Z,99.90
2024-04-13T12:53:10.498Z,99.90
2024-04-13T12:55:38.288Z,99.90
2024-04-13T12:58:05.652Z,99.90
2024-04-13T13:00:33.515Z,99.90
2024-04-13T13:03:00.989Z,99.90
2024-04-13T13:05:28.804Z,99.90
2024-04-13T13:07:56.164Z,99.90
2024-04-13T13:10:23.763Z,99.90
2024-04-13T13:12:51.024Z,99.90
2024-04-13T13:15:18.680Z,99.90
2024-04-13T13:17:45.985Z,99.90
2024-04-13T13:20:13.782Z,99.90
2024-04-13T13:22:41.043Z,99.90
2024-04-13T13:25:08.755Z,99.90
2024-04-13T13:27:36.055Z,99.90
2024-04-13T13:30:04.478Z,99.90
2024-04-13T13:32:31.811Z,99.90
2024-04-13T13:34:59.680Z,99.90
2024-04-13T13:37:26.887Z,99.90
2024-04-13T13:39:54.592Z,99.90
2024-04-13T13:42:21.900Z,99.90
2024-04-13T13:44:49.650Z,99.90
2024-04-13T13:47:16.880Z,99.90
2024-04-13T13:49:44.605Z,99.90
2024-04-13T13:52:11.948Z,99.90
2024-04-13T13:54:39.747Z,99.90
2024-04-13T13:57:07.161Z,99.90
2024-04-13T13:59:34.861Z,99.90
2024-04-13T14:02:02.254Z,99.90
2024-04-13T14:04:30.138Z,99.90
2024-04-13T14:06:57.478Z,99.90
2024-04-13T14:09:25.518Z,99.90
2024-04-13T14:11:52.777Z,99.90
2024-04-13T14:14:20.496Z,99.90
2024-04-13T14:16:47.938Z,99.90
2024-04-13T14:19:15.608Z,99.90
2024-04-13T14:21:42.938Z,99.90
2024-04-13T14:24:10.654Z,99.90
2024-04-13T14:26:38.043Z,99.90
2024-04-13T14:29:06.212Z,99.90
2024-04-13T14:31:33.664Z,99.90
2024-04-13T14:34:01.383Z,99.90
2024-04-13T14:36:28.771Z,99.90
2024-04-13T14:38:56.439Z,99.90
2024-04-13T14:41:23.750Z,99.90
2024-04-13T14:43:53.041Z,99.90
2024-04-13T14:46:21.074Z,99.90
2024-04-13T14:48:49.050Z,99.90
2024-04-13T14:51:16.555Z,99.90
2024-04-13T14:53:44.192Z,99.90
2024-04-13T14:56:11.603Z,99.90
2024-04-13T14:58:39.275Z,99.90
2024-04-13T15:01:07.838Z,99.90
2024-04-13T15:03:36.231Z,99.90
2024-04-13T15:06:04.157Z,99.90
2024-04-13T15:08:31.965Z,99.90
2024-04-13T15:14:10.647Z,99.90
2024-04-13T15:20:22.552Z,99.90
2024-04-13T15:25:55.619Z,99.90
2024-04-13T15:28:24.653Z,99.90
2024-04-13T15:30:53.807Z,99.90
2024-04-13T15:33:21.503Z,99.90
2024-04-13T15:35:49.416Z,99.90
2024-04-13T15:38:19.987Z,99.90
2024-04-13T15:40:49.492Z,99.90
2024-04-13T15:43:19.437Z,99.90
2024-04-13T15:45:52.966Z,99.90
2024-04-13T15:48:21.199Z,99.90
2024-04-13T15:50:48.623Z,99.90
2024-04-13T15:53:16.539Z,99.90
2024-04-13T15:55:43.870Z,99.90
2024-04-13T15:58:11.994Z,99.90
2024-04-13T16:00:39.561Z,99.90
2024-04-13T16:03:07.375Z,99.90
2024-04-13T16:05:34.658Z,99.90
2024-04-13T16:08:02.486Z,99.90
2024-04-13T16:10:30.567Z,99.90
2024-04-13T16:12:58.444Z,99.90
2024-04-13T16:15:25.933Z,99.90
2024-04-13T16:17:54.340Z,99.90
2024-04-13T16:20:21.724Z,99.90
2024-04-13T16:22:52.818Z,99.90
2024-04-13T16:25:20.073Z,99.90
2024-04-13T16:27:48.071Z,99.90
2024-04-13T16:30:15.394Z,99.90
2024-04-13T16:32:43.288Z,99.90
2024-04-13T16:35:10.593Z,99.90
2024-04-13T16:37:38.253Z,99.90
2024-04-13T16:40:06.236Z,99.90
2024-04-13T16:42:34.136Z,99.90
2024-04-13T16:45:02.218Z,99.90
2024-04-13T16:47:30.236Z,99.90
2024-04-13T16:49:57.716Z,99.90
2024-04-13T16:52:26.428Z,99.90
2024-04-13T16:54:53.955Z,99.90
2024-04-13T16:57:21.868Z,99.90
2024-04-13T16:59:49.275Z,99.90
2024-04-13T17:02:17.052Z,99.90
2024-04-13T17:04:44.712Z,99.90
2024-04-13T17:07:12.412Z,99.90
2024-04-13T17:09:39.861Z,99.90
2024-04-13T17:12:07.960Z,99.90
2024-04-13T17:14:35.148Z,99.90
2024-04-13T17:17:03.121Z,99.90
2024-04-13T17:19:30.403Z,99.90
2024-04-13T17:21:58.244Z,99.90
2024-04-13T17:24:26.105Z,99.90
2024-04-13T17:26:54.103Z,99.90
2024-04-13T17:29:21.377Z,99.90
2024-04-13T17:31:49.225Z,99.90
2024-04-13T17:34:16.538Z,99.90
2024-04-13T17:36:44.270Z,99.90
2024-04-13T17:39:20.397Z,99.90
2024-04-13T17:41:48.034Z,99.90
2024-04-13T17:44:15.252Z,99.90
2024-04-13T17:46:43.074Z,99.90
2024-04-13T17:49:10.359Z,99.90
2024-04-13T17:51:38.017Z,99.90
2024-04-13T17:54:05.373Z,99.90
2024-04-13T17:56:35.701Z,99.90
2024-04-13T17:59:04.122Z,99.90
2024-04-13T18:01:32.686Z,99.90
2024-04-13T18:04:00.089Z,99.90
2024-04-13T18:06:28.315Z,99.90
2024-04-13T18:08:55.582Z,99.90
2024-04-13T18:11:23.300Z,99.90
2024-04-13T18:13:52.034Z,99.90
2024-04-13T18:16:20.305Z,99.90
2024-04-13T18:18:47.636Z,99.90
2024-04-13T18:21:15.368Z,99.90
2024-04-13T18:23:42.567Z,99.90
2024-04-13T18:26:10.232Z,99.90
2024-04-13T18:28:37.702Z,99.90
2024-04-13T18:31:05.479Z,99.90
2024-04-13T18:33:32.827Z,99.90
2024-04-13T18:36:00.696Z,99.90
2024-04-13T18:38:35.589Z,99.90
2024-04-13T18:41:08.842Z,99.90
2024-04-13T18:43:36.150Z,99.90
2024-04-13T18:46:05.086Z,99.90
2024-04-13T18:48:33.495Z,99.90
2024-04-13T18:51:01.218Z,99.90
2024-04-13T18:53:28.543Z,99.90
2024-04-13T18:55:56.185Z,99.90
2024-04-13T18:58:23.546Z,99.90
2024-04-13T19:00:51.233Z,99.90
2024-04-13T19:03:18.581Z,99.90
2024-04-13T19:05:46.285Z,99.90
2024-04-13T19:08:13.615Z,99.90
2024-04-13T19:10:41.419Z,99.90
2024-04-13T19:13:08.733Z,99.90
2024-04-13T19:15:36.371Z,99.90
2024-04-13T19:18:06.497Z,99.90
2024-04-13T19:20:34.248Z,99.90
2024-04-13T19:23:03.252Z,99.90
2024-04-13T19:25:31.705Z,99.90
2024-04-13T19:28:01.807Z,99.90
2024-04-13T19:30:29.757Z,99.90
2024-04-13T19:32:58.374Z,99.90
2024-04-13T19:35:26.084Z,99.90
2024-04-13T19:37:53.390Z,99.90
2024-04-13T19:40:21.725Z,99.90
2024-04-13T19:42:49.048Z,99.90
2024-04-13T19:45:16.965Z,99.90
2024-04-13T19:47:44.643Z,99.90
2024-04-13T19:50:12.397Z,99.90
2024-04-13T19:52:39.738Z,99.90
2024-04-13T19:55:07.724Z,99.90
2024-04-13T19:57:34.930Z,99.90
2024-04-13T20:00:05.962Z,99.90
2024-04-13T20:02:34.121Z,99.90
2024-04-13T20:05:02.057Z,99.90
2024-04-13T20:07:31.666Z,99.90
2024-04-13T20:09:59.413Z,99.90
2024-04-13T20:12:26.668Z,99.90
2024-04-13T20:15:23.811Z,99.90
2024-04-13T20:18:09.888Z,99.90
2024-04-13T20:20:37.613Z,99.90
2024-04-13T20:23:04.992Z,99.90
2024-04-13T20:25:36.698Z,99.90
2024-04-13T20:28:04.180Z,99.90
2024-04-13T20:30:31.999Z,98.30
2024-04-13T20:32:59.381Z,80.90
2024-04-13T20:35:27.021Z,56.60
2024-04-13T20:37:54.488Z,67.80
2024-04-13T20:40:22.282Z,47.00
2024-04-13T20:42:49.681Z,39.50
2024-04-13T20:45:17.488Z,26.50
2024-04-13T20:47:44.924Z,10.70
2024-04-13T20:50:12.748Z,24.10
2024-04-13T20:52:52.477Z,23.80
2024-04-13T20:55:26.140Z,46.70
2024-04-13T20:57:54.904Z,33.20
2024-04-13T21:00:23.176Z,45.20
2024-04-13T21:02:50.588Z,25.80
2024-04-13T21:05:18.300Z,32.20
2024-04-13T21:07:47.383Z,27.60
2024-04-13T21:10:15.791Z,32.00
2024-04-13T21:12:43.033Z,33.90
2024-04-13T21:15:10.800Z,55.20
2024-04-13T21:17:38.067Z,69.80
2024-04-13T21:20:06.630Z,25.80
2024-04-13T21:22:33.919Z,52.60
2024-04-13T21:25:02.946Z,39.40
2024-04-13T21:27:30.776Z,70.30
2024-04-13T21:29:58.628Z,90.90
2024-04-13T21:32:26.551Z,99.90
2024-04-13T21:34:54.523Z,99.90
2024-04-13T21:37:21.825Z,99.90
2024-04-13T21:39:49.596Z,99.90
2024-04-13T21:42:17.956Z,91.10
2024-04-13T21:44:46.198Z,97.80
2024-04-13T21:47:13.436Z,91.10
2024-04-13T21:49:41.236Z,95.40
2024-04-13T21:52:08.493Z,90.60
2024-04-13T21:54:36.185Z,91.70
2024-04-13T21:57:04.056Z,91.00
2024-04-13T21:59:31.789Z,88.60
2024-04-13T22:01:59.081Z,84.90
2024-04-13T22:04:26.803Z,88.60
2024-04-13T22:06:54.100Z,62.40
2024-04-13T22:09:21.830Z,70.50
2024-04-13T22:11:50.537Z,73.30
2024-04-13T22:14:18.381Z,61.00
2024-04-13T22:16:45.602Z,82.00
2024-04-13T22:19:13.314Z,61.60
2024-04-13T22:21:46.185Z,57.40
2024-04-13T22:24:14.121Z,33.60
2024-04-13T22:26:42.384Z,44.10
2024-04-13T22:29:09.989Z,33.30
2024-04-13T22:31:41.248Z,55.10
2024-04-13T22:34:10.467Z,55.70
2024-04-13T22:36:37.799Z,40.30
2024-04-13T22:39:05.468Z,37.00
2024-04-13T22:41:32.735Z,57.60
2024-04-13T22:44:00.486Z,59.40
2024-04-13T22:46:27.765Z,79.30
2024-04-13T22:48:55.567Z,61.60
2024-04-13T22:51:22.914Z,46.50
2024-04-13T22:53:50.726Z,51.00
2024-04-13T22:56:18.016Z,53.50
2024-04-13T22:58:45.743Z,51.20
2024-04-13T23:01:13.241Z,56.20
2024-04-13T23:03:41.223Z,69.30
2024-04-13T23:06:08.561Z,31.80
2024-04-13T23:08:36.261Z,53.00
2024-04-13T23:11:03.546Z,54.50
2024-04-13T23:13:31.276Z,66.20
2024-04-13T23:15:58.600Z,42.90
2024-04-13T23:18:26.394Z,37.50
2024-04-13T23:20:53.692Z,37.90
2024-04-13T23:23:21.360Z,50.70
2024-04-13T23:25:49.470Z,46.80
2024-04-13T23:28:17.194Z,46.00
2024-04-13T23:30:44.417Z,22.40
2024-04-13T23:33:12.250Z,25.20
2024-04-13T23:35:39.470Z,48.90
2024-04-13T23:38:07.942Z,65.50
2024-04-13T23:40:37.582Z,57.60
2024-04-13T23:43:05.874Z,70.80
2024-04-13T23:45:33.235Z,53.80
2024-04-13T23:48:00.956Z,69.00
2024-04-13T23:50:28.137Z,58.10
2024-04-13T23:52:55.871Z,37.60
2024-04-13T23:55:25.196Z,21.60
2024-04-13T23:57:53.234Z,33.40
